createdAt,value
2023-03-26T00:01:29.637Z,9.80
2023-03-26T00:03:58.618Z,8.13
2023-03-26T00:06:29.293Z,7.40
2023-03-26T00:08:58.987Z,10.77
2023-03-26T00:11:29.571Z,6.17
2023-03-26T00:13:59.595Z,9.83
2023-03-26T00:16:29.221Z,8.27
2023-03-26T00:18:57.678Z,6.53
2023-03-26T00:21:29.063Z,8.27
2023-03-26T00:23:59.661Z,8.60
2023-03-26T00:26:27.971Z,11.30
2023-03-26T00:28:55.746Z,9.37
2023-03-26T00:31:25.453Z,8.93
2023-03-26T00:33:55.502Z,8.73
2023-03-26T00:36:25.938Z,10.33
2023-03-26T00:38:54.427Z,7.60
2023-03-26T00:41:27.095Z,9.47
2023-03-26T00:43:57.042Z,7.00
2023-03-26T00:46:27.515Z,7.30
2023-03-26T00:48:59.141Z,9.63
2023-03-26T00:51:27.918Z,9.27
2023-03-26T00:53:56.584Z,8.47
2023-03-26T00:56:25.097Z,9.87
2023-03-26T00:58:52.972Z,7.73
2023-03-26T01:01:27.322Z,9.33
2023-03-26T01:04:07.594Z,7.00
2023-03-26T01:06:42.420Z,7.83
2023-03-26T01:09:17.357Z,9.03
2023-03-26T01:11:45.939Z,8.33
2023-03-26T01:14:17.225Z,9.37
2023-03-26T01:16:47.322Z,9.83
2023-03-26T01:19:25.259Z,9.20
2023-03-26T01:21:54.865Z,8.13
2023-03-26T01:24:24.024Z,7.37
2023-03-26T01:27:18.335Z,6.07
2023-03-26T01:29:52.578Z,7.73
2023-03-26T01:32:31.082Z,7.93
2023-03-26T01:35:14.369Z,9.83
2023-03-26T01:37:53.677Z,6.70
2023-03-26T01:40:30.218Z,8.83
2023-03-26T01:43:04.108Z,7.93
2023-03-26T01:45:35.518Z,7.13
2023-03-26T01:48:03.860Z,7.97
2023-03-26T01:50:31.786Z,7.23
2023-03-26T01:52:59.852Z,6.97
2023-03-26T01:55:35.596Z,6.57
2023-03-26T01:58:14.013Z,7.30
2023-03-26T02:00:50.235Z,7.40
2023-03-26T02:03:27.078Z,7.00
2023-03-26T02:05:58.716Z,9.03
2023-03-26T02:08:35.823Z,7.80
2023-03-26T02:11:11.519Z,6.93
2023-03-26T02:13:41.689Z,8.17
2023-03-26T02:16:11.738Z,9.60
2023-03-26T02:18:39.652Z,6.53
2023-03-26T02:21:12.495Z,8.53
2023-03-26T02:23:40.885Z,9.50
2023-03-26T02:26:12.152Z,8.43
2023-03-26T02:28:39.935Z,7.47
2023-03-26T02:31:11.130Z,9.37
2023-03-26T02:33:39.863Z,9.30
2023-03-26T02:36:08.795Z,10.33
2023-03-26T02:38:36.552Z,8.17
2023-03-26T02:41:06.011Z,9.13
2023-03-26T02:43:35.371Z,10.07
2023-03-26T02:46:03.320Z,8.30
2023-03-26T02:48:31.477Z,10.67
2023-03-26T02:50:59.305Z,11.30
2023-03-26T02:53:29.986Z,12.33
2023-03-26T02:55:59.555Z,12.70
2023-03-26T02:58:30.175Z,11.10
2023-03-26T03:00:59.700Z,12.43
2023-03-26T03:03:30.124Z,11.70
2023-03-26T03:05:59.393Z,12.97
2023-03-26T03:08:29.619Z,13.50
2023-03-26T03:10:58.815Z,10.63
2023-03-26T03:13:26.837Z,12.83
2023-03-26T03:15:54.950Z,8.50
2023-03-26T03:18:24.391Z,13.93
2023-03-26T03:20:53.904Z,12.33
2023-03-26T03:23:22.325Z,13.60
2023-03-26T03:25:52.730Z,12.50
2023-03-26T03:28:20.764Z,12.60
2023-03-26T03:30:49.087Z,15.63
2023-03-26T03:33:20.466Z,17.47
2023-03-26T03:35:50.356Z,15.87
2023-03-26T03:38:18.297Z,16.77
2023-03-26T03:40:46.853Z,16.13
2023-03-26T03:43:14.507Z,12.87
2023-03-26T03:45:42.341Z,16.47
2023-03-26T03:48:11.377Z,18.53
2023-03-26T03:50:40.733Z,17.93
2023-03-26T03:53:10.045Z,19.07
2023-03-26T03:55:38.341Z,20.10
2023-03-26T03:58:09.170Z,19.17
2023-03-26T04:00:38.364Z,19.87
2023-03-26T04:03:06.567Z,14.27
2023-03-26T04:05:34.747Z,17.70
2023-03-26T04:08:02.861Z,22.20
2023-03-26T04:10:32.200Z,20.90
2023-03-26T04:13:00.116Z,19.20
2023-03-26T04:15:28.710Z,19.80
2023-03-26T04:17:57.290Z,18.60
2023-03-26T04:20:26.160Z,18.20
2023-03-26T04:22:55.144Z,17.40
2023-03-26T04:25:22.924Z,19.57
2023-03-26T04:27:52.118Z,20.67
2023-03-26T04:30:21.834Z,18.13
2023-03-26T04:32:49.570Z,14.20
2023-03-26T04:35:18.432Z,19.70
2023-03-26T04:37:47.853Z,18.57
2023-03-26T04:40:19.425Z,15.47
2023-03-26T04:42:48.152Z,18.07
2023-03-26T04:45:22.395Z,18.93
2023-03-26T04:47:52.089Z,16.87
2023-03-26T04:50:20.097Z,17.93
2023-03-26T04:52:48.956Z,19.27
2023-03-26T04:55:24.192Z,14.67
2023-03-26T04:57:56.896Z,13.27
2023-03-26T05:00:26.546Z,11.70
2023-03-26T05:02:56.286Z,14.50
2023-03-26T05:05:25.311Z,13.17
2023-03-26T05:07:53.396Z,16.60
2023-03-26T05:10:22.910Z,15.93
2023-03-26T05:12:50.658Z,13.00
2023-03-26T05:15:18.613Z,12.00
2023-03-26T05:17:48.526Z,14.03
2023-03-26T05:20:20.930Z,11.60
2023-03-26T05:22:48.961Z,15.17
2023-03-26T05:25:17.198Z,11.70
2023-03-26T05:27:45.367Z,14.20
2023-03-26T05:30:15.958Z,14.83
2023-03-26T05:32:44.017Z,17.27
2023-03-26T05:35:16.925Z,10.60
2023-03-26T05:37:45.720Z,12.00
2023-03-26T05:40:17.255Z,14.23
2023-03-26T05:42:46.150Z,15.47
2023-03-26T05:45:16.473Z,16.63
2023-03-26T05:47:45.134Z,15.57
2023-03-26T05:50:14.151Z,14.10
2023-03-26T05:52:42.461Z,13.37
2023-03-26T05:55:11.690Z,12.47
2023-03-26T05:57:39.387Z,11.53
2023-03-26T06:00:11.038Z,10.30
2023-03-26T06:02:38.975Z,14.50
2023-03-26T06:05:08.158Z,16.17
2023-03-26T06:07:37.533Z,15.07
2023-03-26T06:10:06.098Z,16.53
2023-03-26T06:12:34.096Z,17.43
2023-03-26T06:15:02.537Z,16.40
2023-03-26T06:17:30.326Z,9.70
2023-03-26T06:19:58.876Z,16.17
2023-03-26T06:22:26.674Z,11.70
2023-03-26T06:24:56.449Z,16.80
2023-03-26T06:27:24.519Z,13.30
2023-03-26T06:29:52.489Z,18.10
2023-03-26T06:32:20.807Z,12.63
2023-03-26T06:34:48.660Z,14.73
2023-03-26T06:37:16.548Z,14.93
2023-03-26T06:39:44.567Z,14.50
2023-03-26T06:42:13.974Z,17.73
2023-03-26T06:44:41.770Z,15.63
2023-03-26T06:47:09.689Z,14.60
2023-03-26T06:49:38.142Z,15.17
2023-03-26T06:52:06.876Z,21.87
2023-03-26T06:54:34.604Z,17.13
2023-03-26T06:57:02.737Z,19.83
2023-03-26T06:59:32.371Z,15.23
2023-03-26T07:02:01.789Z,17.40
2023-03-26T07:04:29.807Z,15.67
2023-03-26T07:06:57.760Z,15.13
2023-03-26T07:09:26.290Z,16.27
2023-03-26T07:11:54.477Z,16.63
2023-03-26T07:14:22.228Z,18.73
2023-03-26T07:16:51.673Z,14.77
2023-03-26T07:19:19.359Z,18.10
2023-03-26T07:21:48.517Z,17.60
2023-03-26T07:24:17.745Z,15.67
2023-03-26T07:26:54.070Z,13.27
2023-03-26T07:29:29.157Z,18.60
2023-03-26T07:32:04.984Z,18.07
2023-03-26T07:34:45.082Z,14.27
2023-03-26T07:37:24.484Z,13.27
2023-03-26T07:39:58.051Z,18.07
2023-03-26T07:42:40.089Z,15.57
2023-03-26T07:45:20.724Z,19.57
2023-03-26T07:47:53.686Z,16.23
2023-03-26T07:50:25.055Z,15.83
2023-03-26T07:52:53.606Z,18.47
2023-03-26T07:55:22.631Z,15.43
2023-03-26T07:58:00.394Z,15.10
2023-03-26T08:00:31.713Z,17.40
2023-03-26T08:03:23.546Z,15.03
2023-03-26T08:05:58.296Z,16.37
2023-03-26T08:08:33.492Z,15.43
2023-03-26T08:11:13.448Z,14.93
2023-03-26T08:13:56.979Z,13.83
2023-03-26T08:16:32.981Z,14.93
2023-03-26T08:19:11.216Z,14.37
2023-03-26T08:21:48.038Z,15.73
2023-03-26T08:24:22.296Z,15.53
2023-03-26T08:26:57.653Z,15.00
2023-03-26T08:29:35.220Z,12.20
2023-03-26T08:32:05.568Z,16.10
2023-03-26T08:34:35.088Z,11.33
2023-03-26T08:37:03.391Z,12.77
2023-03-26T08:39:31.639Z,13.73
2023-03-26T08:42:34.504Z,15.67
2023-03-26T08:45:27.604Z,17.40
2023-03-26T08:48:25.816Z,12.40
2023-03-26T08:51:18.316Z,14.70
2023-03-26T08:54:20.367Z,10.93
2023-03-26T08:56:54.562Z,11.80
2023-03-26T08:59:47.625Z,14.97
2023-03-26T09:02:45.428Z,11.57
2023-03-26T09:05:37.264Z,13.67
2023-03-26T09:08:30.044Z,14.37
2023-03-26T09:11:20.283Z,11.97
2023-03-26T09:14:30.291Z,14.73
2023-03-26T09:17:32.149Z,13.80
2023-03-26T09:20:38.157Z,14.27
2023-03-26T09:23:30.204Z,12.97
2023-03-26T09:26:05.812Z,15.73
2023-03-26T09:29:06.367Z,12.43
2023-03-26T09:31:52.035Z,12.20
2023-03-26T09:34:31.693Z,10.63
2023-03-26T09:37:18.455Z,14.00
2023-03-26T09:40:10.934Z,15.77
2023-03-26T09:42:45.505Z,11.20
2023-03-26T09:45:46.458Z,12.97
2023-03-26T09:48:34.850Z,12.47
2023-03-26T09:51:22.964Z,14.90
2023-03-26T09:54:07.288Z,14.80
2023-03-26T09:56:48.267Z,12.23
2023-03-26T09:59:32.435Z,8.70
2023-03-26T10:02:15.289Z,14.97
2023-03-26T10:05:04.959Z,9.33
2023-03-26T10:07:58.769Z,13.17
2023-03-26T10:10:36.849Z,11.37
2023-03-26T10:13:15.322Z,11.47
2023-03-26T10:15:59.282Z,14.27
2023-03-26T10:18:39.984Z,11.00
2023-03-26T10:21:12.554Z,7.83
2023-03-26T10:23:57.063Z,12.50
2023-03-26T10:26:36.941Z,8.30
2023-03-26T10:29:21.420Z,13.73
2023-03-26T10:31:55.718Z,7.93
2023-03-26T10:34:40.702Z,8.30
2023-03-26T10:37:12.750Z,7.80
2023-03-26T10:40:07.141Z,10.77
2023-03-26T10:42:49.383Z,11.23
2023-03-26T10:45:42.680Z,6.93
2023-03-26T10:48:46.819Z,10.27
2023-03-26T10:51:34.399Z,9.10
2023-03-26T10:54:07.226Z,8.93
2023-03-26T10:56:40.490Z,10.30
2023-03-26T10:59:10.186Z,9.53
2023-03-26T11:01:44.775Z,5.87
2023-03-26T11:04:27.287Z,10.17
2023-03-26T11:07:06.810Z,9.03
2023-03-26T11:09:43.287Z,8.50
2023-03-26T11:12:26.288Z,7.20
2023-03-26T11:15:06.908Z,7.73
2023-03-26T11:17:44.816Z,8.93
2023-03-26T11:20:16.855Z,8.60
2023-03-26T11:22:55.893Z,9.50
2023-03-26T11:25:32.850Z,9.53
2023-03-26T11:28:13.950Z,7.00
2023-03-26T11:30:48.164Z,6.30
2023-03-26T11:33:22.239Z,8.57
2023-03-26T11:35:52.601Z,6.47
2023-03-26T11:38:26.702Z,9.97
2023-03-26T11:40:57.821Z,6.03
2023-03-26T11:43:31.874Z,4.93
2023-03-26T11:46:01.317Z,4.83
2023-03-26T11:48:36.108Z,5.60
2023-03-26T11:51:10.485Z,4.50
2023-03-26T11:53:40.935Z,4.37
2023-03-26T11:56:15.221Z,4.60
2023-03-26T11:58:49.441Z,3.03
2023-03-26T12:01:19.848Z,3.80
2023-03-26T12:03:59.921Z,6.73
2023-03-26T12:06:29.157Z,4.20
2023-03-26T12:08:57.878Z,5.70
2023-03-26T12:11:29.409Z,5.03
2023-03-26T12:14:00.608Z,5.60
2023-03-26T12:16:28.849Z,6.33
2023-03-26T12:19:05.752Z,6.57
2023-03-26T12:21:45.576Z,7.23
2023-03-26T12:24:28.320Z,5.87
2023-03-26T12:27:03.521Z,5.57
2023-03-26T12:29:34.635Z,6.10
2023-03-26T12:32:08.787Z,5.13
2023-03-26T12:34:39.621Z,7.70
2023-03-26T12:37:09.702Z,3.57
2023-03-26T12:40:08.111Z,2.40
2023-03-26T12:44:46.499Z,3.37
2023-03-26T12:45:17.380Z,2.87
2023-03-26T12:47:58.514Z,3.97
2023-03-26T12:50:41.483Z,2.80
2023-03-26T12:53:32.889Z,2.73
2023-03-26T12:56:02.647Z,2.97
2023-03-26T12:58:41.269Z,2.40
2023-03-26T13:01:19.166Z,2.90
2023-03-26T13:04:09.392Z,2.50
2023-03-26T13:07:00.070Z,3.53
2023-03-26T13:09:47.876Z,3.47
2023-03-26T13:12:27.110Z,2.80
2023-03-26T13:15:18.987Z,2.80
2023-03-26T13:17:56.886Z,3.63
2023-03-26T13:20:33.215Z,3.37
2023-03-26T13:23:12.144Z,3.90
2023-03-26T13:25:46.412Z,3.27
2023-03-26T13:28:27.116Z,4.20
2023-03-26T13:31:06.767Z,3.93
2023-03-26T13:33:47.069Z,4.17
2023-03-26T13:36:23.668Z,3.20
2023-03-26T13:39:08.068Z,2.73
2023-03-26T13:41:47.674Z,5.30
2023-03-26T13:44:24.831Z,3.90
2023-03-26T13:46:56.425Z,4.03
2023-03-26T13:49:36.976Z,3.97
2023-03-26T13:52:09.310Z,3.57
2023-03-26T13:54:44.252Z,3.93
2023-03-26T13:57:20.391Z,3.87
2023-03-26T13:59:53.224Z,3.40
2023-03-26T14:02:28.880Z,4.37
2023-03-26T14:05:01.469Z,3.40
2023-03-26T14:07:34.895Z,2.20
2023-03-26T14:10:08.486Z,2.00
2023-03-26T14:12:51.432Z,1.60
2023-03-26T14:15:23.563Z,1.30
2023-03-26T14:17:57.146Z,1.83
2023-03-26T14:20:44.706Z,1.77
2023-03-26T14:23:32.491Z,1.20
2023-03-26T14:26:16.258Z,1.83
2023-03-26T14:29:10.905Z,2.13
2023-03-26T14:31:48.114Z,2.23
2023-03-26T14:34:38.863Z,1.97
2023-03-26T14:37:30.124Z,2.60
2023-03-26T14:40:25.355Z,2.60
2023-03-26T14:43:05.060Z,1.70
2023-03-26T14:45:49.289Z,1.60
2023-03-26T14:48:48.202Z,1.57
2023-03-26T14:51:30.016Z,1.50
2023-03-26T14:54:02.109Z,1.37
2023-03-26T14:56:50.994Z,1.27
2023-03-26T14:59:43.184Z,1.20
2023-03-26T15:02:38.987Z,1.70
2023-03-26T15:05:41.941Z,1.90
2023-03-26T15:08:59.747Z,2.50
2023-03-26T15:11:35.296Z,1.70
2023-03-26T15:14:55.441Z,1.67
2023-03-26T15:18:00.319Z,2.20
2023-03-26T15:20:54.457Z,2.10
2023-03-26T15:23:50.956Z,2.40
2023-03-26T15:27:03.708Z,2.93
2023-03-26T15:30:01.204Z,4.73
2023-03-26T15:33:03.769Z,7.17
2023-03-26T15:36:09.112Z,6.70
2023-03-26T15:39:09.424Z,7.40
2023-03-26T15:41:44.526Z,7.67
2023-03-26T15:44:43.674Z,6.73
2023-03-26T15:47:32.775Z,7.00
2023-03-26T15:50:16.802Z,8.17
2023-03-26T15:52:52.306Z,8.67
2023-03-26T15:55:31.102Z,8.70
2023-03-26T15:58:06.573Z,6.07
2023-03-26T16:00:36.920Z,6.47
2023-03-26T16:03:17.817Z,7.47
2023-03-26T16:06:14.143Z,8.13
2023-03-26T16:08:53.030Z,7.87
2023-03-26T16:11:46.466Z,5.80
2023-03-26T16:14:23.145Z,7.13
2023-03-26T16:16:57.462Z,6.80
2023-03-26T16:19:56.507Z,7.73
2023-03-26T16:22:43.845Z,7.60
2023-03-26T16:25:29.562Z,5.30
2023-03-26T16:28:28.772Z,7.97
2023-03-26T16:31:37.759Z,6.83
2023-03-26T16:34:30.371Z,6.07
2023-03-26T16:37:00.715Z,6.00
2023-03-26T16:39:46.378Z,7.40
2023-03-26T16:42:32.290Z,6.53
2023-03-26T16:45:14.557Z,5.50
2023-03-26T16:47:52.384Z,4.93
2023-03-26T16:50:29.979Z,5.03
2023-03-26T16:53:06.788Z,5.90
2023-03-26T16:55:44.610Z,7.33
2023-03-26T16:58:21.888Z,7.03
2023-03-26T17:00:55.146Z,7.00
2023-03-26T17:03:34.228Z,8.93
2023-03-26T17:06:15.752Z,6.63
2023-03-26T17:08:56.130Z,6.80
2023-03-26T17:11:36.150Z,8.73
2023-03-26T17:14:31.921Z,6.63
2023-03-26T17:17:18.040Z,9.40
2023-03-26T17:19:54.581Z,8.17
2023-03-26T17:22:38.955Z,5.53
2023-03-26T17:25:18.999Z,7.57
2023-03-26T17:27:55.201Z,4.30
2023-03-26T17:30:34.738Z,11.97
2023-03-26T17:33:13.592Z,6.67
2023-03-26T17:35:44.946Z,5.70
2023-03-26T17:38:50.502Z,9.63
2023-03-26T17:41:51.682Z,6.77
2023-03-26T17:44:42.821Z,5.40
2023-03-26T17:47:20.039Z,6.20
2023-03-26T17:49:51.425Z,5.23
2023-03-26T17:52:24.728Z,5.60
2023-03-26T17:54:55.951Z,9.77
2023-03-26T17:57:28.105Z,10.43
2023-03-26T18:00:00.725Z,6.40
2023-03-26T18:02:37.135Z,5.53
2023-03-26T18:05:07.016Z,8.10
2023-03-26T18:08:02.080Z,7.47
2023-03-26T18:10:44.974Z,9.37
2023-03-26T18:13:31.111Z,5.00
2023-03-26T18:16:13.146Z,5.97
2023-03-26T18:18:49.099Z,6.43
2023-03-26T18:21:23.236Z,4.70
2023-03-26T18:23:51.823Z,7.00
2023-03-26T18:26:24.116Z,3.37
2023-03-26T18:28:54.460Z,6.10
2023-03-26T18:31:26.370Z,5.93
2023-03-26T18:33:57.170Z,5.30
2023-03-26T18:36:27.874Z,5.23
2023-03-26T18:38:59.207Z,6.40
2023-03-26T18:41:32.170Z,7.37
2023-03-26T18:44:04.006Z,6.70
2023-03-26T18:46:34.190Z,9.27
2023-03-26T18:49:03.128Z,8.03
2023-03-26T18:51:36.468Z,7.47
2023-03-26T18:54:10.109Z,6.73
2023-03-26T18:56:41.288Z,5.47
2023-03-26T18:59:27.967Z,8.17
2023-03-26T19:01:58.939Z,5.60
2023-03-26T19:04:28.289Z,4.67
2023-03-26T19:06:57.628Z,6.90
2023-03-26T19:09:31.942Z,5.07
2023-03-26T19:12:08.283Z,8.97
2023-03-26T19:14:52.921Z,8.67
2023-03-26T19:17:23.722Z,7.67
2023-03-26T19:19:52.753Z,6.67
2023-03-26T19:22:23.521Z,7.43
2023-03-26T19:24:57.550Z,4.50
2023-03-26T19:27:30.459Z,5.10
2023-03-26T19:29:58.549Z,8.20
2023-03-26T19:32:34.621Z,6.90
2023-03-26T19:35:04.564Z,6.97
2023-03-26T19:37:33.246Z,5.50
2023-03-26T19:40:15.548Z,7.83
2023-03-26T19:42:45.112Z,7.47
2023-03-26T19:45:17.363Z,6.33
2023-03-26T19:47:57.474Z,6.50
2023-03-26T19:50:34.555Z,5.97
2023-03-26T19:53:17.958Z,6.53
2023-03-26T19:55:57.537Z,5.83
2023-03-26T19:58:27.667Z,5.40
2023-03-26T20:00:57.415Z,6.40
2023-03-26T20:03:30.460Z,9.60
2023-03-26T20:05:58.569Z,5.40
2023-03-26T20:08:27.999Z,9.37
2023-03-26T20:10:56.809Z,8.10
2023-03-26T20:14:53.957Z,3.93
2023-03-26T20:17:22.575Z,4.63
2023-03-26T20:20:49.473Z,5.27
2023-03-26T20:23:18.914Z,5.30
2023-03-26T20:25:52.169Z,6.10
2023-03-26T20:28:20.704Z,6.00
2023-03-26T20:30:49.648Z,5.07
2023-03-26T20:33:22.389Z,9.30
2023-03-26T20:35:51.883Z,7.27
2023-03-26T20:38:21.675Z,6.37
2023-03-26T20:40:50.512Z,8.43
2023-03-26T20:43:18.537Z,8.40
2023-03-26T20:45:46.876Z,6.53
2023-03-26T20:48:14.734Z,7.30
2023-03-26T20:51:01.854Z,6.77
2023-03-26T20:53:31.348Z,6.40
2023-03-26T20:56:00.052Z,6.07
2023-03-26T20:58:31.130Z,5.80
2023-03-26T21:01:02.221Z,5.20
2023-03-26T21:03:31.444Z,6.20
2023-03-26T21:06:02.429Z,4.67
2023-03-26T21:08:38.248Z,5.80
2023-03-26T21:11:26.665Z,4.67
2023-03-26T21:14:01.271Z,8.30
2023-03-26T21:16:29.807Z,5.07
2023-03-26T21:18:58.985Z,5.83
2023-03-26T21:21:41.087Z,6.67
2023-03-26T21:24:18.372Z,7.53
2023-03-26T21:26:54.208Z,8.20
2023-03-26T21:29:22.325Z,6.93
2023-03-26T21:31:52.796Z,4.97
2023-03-26T21:34:22.979Z,5.47
2023-03-26T21:36:51.854Z,8.17
2023-03-26T21:39:22.383Z,7.63
2023-03-26T21:42:04.731Z,4.83
2023-03-26T21:44:34.292Z,6.30
2023-03-26T21:47:02.485Z,9.63
2023-03-26T21:49:30.997Z,6.00
2023-03-26T21:52:00.314Z,5.90
2023-03-26T21:54:31.780Z,5.70
2023-03-26T21:57:10.531Z,4.50
2023-03-26T21:59:49.395Z,8.30
2023-03-26T22:02:22.847Z,7.50
2023-03-26T22:04:55.865Z,6.17
2023-03-26T22:07:28.519Z,5.57
2023-03-26T22:09:58.482Z,4.90
2023-03-26T22:12:26.638Z,6.33
2023-03-26T22:14:54.308Z,7.57
2023-03-26T22:17:23.809Z,5.67
2023-03-26T22:19:51.616Z,6.73
2023-03-26T22:22:22.281Z,6.00
2023-03-26T22:24:50.095Z,5.13
2023-03-26T22:27:19.962Z,6.17
2023-03-26T22:29:48.257Z,7.97
2023-03-26T22:32:17.386Z,4.47
2023-03-26T22:34:45.250Z,4.93
2023-03-26T22:37:13.485Z,5.50
2023-03-26T22:39:41.835Z,6.73
2023-03-26T22:42:09.541Z,9.63
2023-03-26T22:44:40.005Z,7.50
2023-03-26T22:47:08.422Z,7.83
2023-03-26T22:49:36.330Z,10.43
2023-03-26T22:52:04.203Z,4.33
2023-03-26T22:54:32.097Z,6.77
2023-03-26T22:56:59.979Z,8.63
2023-03-26T22:59:27.847Z,8.37
2023-03-26T23:02:01.705Z,6.87
2023-03-26T23:04:32.268Z,4.00
2023-03-26T23:07:01.270Z,5.27
2023-03-26T23:10:38.453Z,5.03
2023-03-26T23:13:06.211Z,6.73
2023-03-26T23:15:34.189Z,7.33
2023-03-26T23:18:02.129Z,5.87
2023-03-26T23:20:37.568Z,4.93
2023-03-26T23:23:05.981Z,7.53
2023-03-26T23:25:33.988Z,6.33
2023-03-26T23:28:03.482Z,4.07
2023-03-26T23:30:35.678Z,7.93
2023-03-26T23:33:03.933Z,6.13
2023-03-26T23:35:31.789Z,8.37
2023-03-26T23:38:02.232Z,5.53
2023-03-26T23:40:30.881Z,9.83
2023-03-26T23:42:58.611Z,6.63
2023-03-26T23:46:30.180Z,9.07
2023-03-26T23:48:59.935Z,5.37
2023-03-26T23:51:30.359Z,7.33
2023-03-26T23:53:58.631Z,8.10
2023-03-26T23:56:27.657Z,6.33
2023-03-26T23:58:55.712Z,10.23
